createdAt,value
2022-10-23T00:08:34.578Z,57.26
2022-10-23T00:18:36.475Z,57.28
2022-10-23T00:28:38.308Z,57.40
2022-10-23T00:38:39.984Z,57.53
2022-10-23T00:48:41.462Z,57.50
2022-10-23T00:58:42.838Z,57.62
2022-10-23T01:08:50.022Z,57.48
2022-10-23T01:18:59.065Z,57.51
2022-10-23T01:29:00.292Z,57.50
2022-10-23T01:39:05.049Z,57.51
2022-10-23T01:49:07.994Z,57.59
2022-10-23T01:59:11.575Z,57.67
2022-10-23T02:09:13.649Z,57.77
2022-10-23T02:19:24.957Z,57.88
2022-10-23T02:29:39.054Z,57.94
2022-10-23T02:39:40.475Z,58.08
2022-10-23T02:49:56.768Z,58.19
2022-10-23T03:00:12.846Z,58.39
2022-10-23T03:10:14.387Z,58.76
2022-10-23T03:20:15.800Z,58.87
2022-10-23T03:30:17.366Z,59.04
2022-10-23T03:40:18.826Z,59.09
2022-10-23T03:50:20.197Z,58.97
2022-10-23T04:00:21.836Z,59.11
2022-10-23T04:10:23.282Z,59.35
2022-10-23T04:20:24.723Z,59.03
2022-10-23T04:30:26.087Z,58.83
2022-10-23T04:40:27.611Z,58.32
2022-10-23T04:50:29.011Z,57.85
2022-10-23T05:00:30.608Z,57.54
2022-10-23T05:10:32.105Z,57.09
2022-10-23T05:20:33.728Z,56.30
2022-10-23T05:30:35.254Z,56.02
2022-10-23T05:40:36.768Z,55.48
2022-10-23T05:50:38.225Z,55.21
2022-10-23T06:00:39.631Z,54.84
2022-10-23T06:10:41.000Z,54.76
2022-10-23T06:20:42.425Z,54.91
2022-10-23T06:30:43.821Z,54.59
2022-10-23T06:40:47.376Z,54.49
2022-10-23T06:50:48.769Z,53.84
2022-10-23T07:00:50.213Z,53.63
2022-10-23T07:10:51.643Z,53.10
2022-10-23T07:20:57.655Z,52.87
2022-10-23T07:30:59.365Z,52.14
2022-10-23T07:41:00.881Z,51.60
2022-10-23T07:51:08.318Z,50.87
2022-10-23T08:01:20.348Z,49.77
2022-10-23T08:11:25.821Z,47.30
2022-10-23T08:21:27.295Z,46.46
2022-10-23T08:31:28.679Z,46.62
2022-10-23T08:41:35.237Z,45.55
2022-10-23T08:51:40.176Z,45.72
2022-10-23T09:01:49.502Z,46.00
2022-10-23T09:12:12.637Z,45.54
2022-10-23T09:22:14.019Z,44.65
2022-10-23T09:32:15.400Z,43.51
2022-10-23T09:42:23.870Z,44.71
2022-10-23T09:52:28.537Z,44.74
2022-10-23T10:02:31.583Z,44.93
2022-10-23T10:12:37.581Z,45.16
2022-10-23T10:23:06.187Z,45.43
2022-10-23T10:33:55.773Z,45.74
2022-10-23T10:44:25.003Z,46.52
2022-10-23T10:54:38.309Z,47.01
2022-10-23T11:04:52.362Z,47.45
2022-10-23T11:14:53.767Z,47.10
2022-10-23T11:25:15.153Z,46.90
2022-10-23T11:35:22.460Z,47.63
2022-10-23T11:45:30.848Z,48.25
2022-10-23T11:55:32.344Z,48.56
2022-10-23T12:05:37.595Z,48.17
2022-10-23T12:15:39.051Z,48.35
2022-10-23T12:25:49.643Z,48.17
2022-10-23T12:36:03.034Z,48.25
2022-10-23T12:46:35.579Z,48.13
2022-10-23T12:56:37.150Z,48.31
2022-10-23T13:06:38.747Z,48.22
2022-10-23T13:16:40.146Z,48.75
2022-10-23T13:26:44.849Z,48.78
2022-10-23T13:36:53.449Z,49.47
2022-10-23T13:46:55.968Z,49.26
2022-10-23T13:56:57.365Z,49.86
2022-10-23T14:06:58.889Z,49.39
2022-10-23T14:17:00.291Z,49.85
2022-10-23T14:27:02.196Z,50.20
2022-10-23T14:37:08.833Z,50.45
2022-10-23T14:47:10.697Z,50.86
2022-10-23T14:57:16.442Z,51.77
2022-10-23T15:07:17.847Z,52.16
2022-10-23T15:17:19.284Z,52.46
2022-10-23T15:27:20.741Z,52.66
2022-10-23T15:37:22.313Z,53.21
2022-10-23T15:47:23.714Z,52.91
2022-10-23T15:57:26.789Z,52.98
2022-10-23T16:07:28.334Z,52.51
2022-10-23T16:17:29.851Z,53.97
2022-10-23T16:27:31.818Z,54.43
2022-10-23T16:37:33.240Z,54.78
2022-10-23T16:47:34.860Z,55.54
2022-10-23T16:57:36.422Z,56.13
2022-10-23T17:07:37.893Z,57.09
2022-10-23T17:17:39.270Z,58.41
2022-10-23T17:27:40.720Z,58.40
2022-10-23T17:37:42.277Z,58.74
2022-10-23T17:47:44.613Z,59.33
2022-10-23T17:57:58.610Z,60.55
2022-10-23T18:08:00.191Z,61.15
2022-10-23T18:18:07.655Z,60.18
2022-10-23T18:28:09.042Z,59.97
2022-10-23T18:38:10.905Z,59.85
2022-10-23T18:48:12.433Z,59.67
2022-10-23T18:58:13.877Z,59.86
2022-10-23T19:08:15.475Z,59.77
2022-10-23T19:18:16.923Z,60.12
2022-10-23T19:28:18.315Z,60.31
2022-10-23T19:38:19.678Z,59.72
2022-10-23T19:48:21.142Z,59.81
2022-10-23T19:58:22.516Z,59.47
2022-10-23T20:08:23.884Z,59.70
2022-10-23T20:18:25.866Z,59.77
2022-10-23T20:28:27.270Z,59.28
2022-10-23T20:38:28.764Z,58.90
2022-10-23T20:48:35.106Z,58.06
2022-10-23T20:58:36.499Z,58.42
2022-10-23T21:08:38.074Z,57.55
2022-10-23T21:18:46.030Z,58.20
2022-10-23T21:28:56.196Z,58.83
2022-10-23T21:39:09.100Z,58.37
2022-10-23T21:49:10.662Z,58.60
2022-10-23T21:59:13.816Z,58.44
2022-10-23T22:09:17.281Z,58.63
2022-10-23T22:19:19.396Z,58.88
2022-10-23T22:29:22.878Z,58.59
2022-10-23T22:39:24.426Z,57.86
2022-10-23T22:49:25.820Z,57.48
2022-10-23T22:59:27.302Z,58.14
2022-10-23T23:09:28.775Z,57.96
2022-10-23T23:19:30.348Z,57.89
2022-10-23T23:29:31.911Z,57.48
2022-10-23T23:39:33.394Z,58.16
2022-10-23T23:49:34.967Z,57.91
2022-10-23T23:59:37.484Z,57.77
